createdAt,value
2018-11-10T00:00:33.352Z,8.95
2018-11-10T00:01:42.968Z,9.08
2018-11-10T00:02:52.866Z,9.02
2018-11-10T00:04:02.867Z,9.02
2018-11-10T00:05:11.906Z,9.04
2018-11-10T00:06:21.783Z,9.02
2018-11-10T00:07:31.392Z,9.02
2018-11-10T00:08:41.289Z,9.04
2018-11-10T00:09:50.908Z,9.08
2018-11-10T00:11:00.788Z,9.1
2018-11-10T00:12:10.401Z,8.98
2018-11-10T00:13:20.295Z,8.99
2018-11-10T00:14:29.904Z,8.99
2018-11-10T00:15:38.971Z,9.01
2018-11-10T00:16:49.047Z,9.13
2018-11-10T00:17:58.384Z,9.05
2018-11-10T00:19:08.546Z,9.1
2018-11-10T00:20:18.710Z,8.96
2018-11-10T00:21:28.326Z,8.96
2018-11-10T00:22:38.215Z,8.96
2018-11-10T00:23:48.103Z,8.91
2018-11-10T00:24:57.449Z,8.98
2018-11-10T00:26:07.073Z,8.95
2018-11-10T00:27:16.955Z,8.95
2018-11-10T00:28:27.117Z,8.99
2018-11-10T00:29:37.278Z,8.99
2018-11-10T00:30:47.172Z,8.98
2018-11-10T00:31:56.779Z,8.95
2018-11-10T00:33:06.390Z,8.95
2018-11-10T00:34:16.551Z,8.96
2018-11-10T00:35:26.181Z,8.92
2018-11-10T00:36:35.525Z,8.98
2018-11-10T00:37:45.424Z,8.95
2018-11-10T00:38:55.326Z,8.84
2018-11-10T00:40:05.486Z,8.86
2018-11-10T00:41:15.096Z,8.94
2018-11-10T00:42:24.719Z,8.94
2018-11-10T00:43:34.609Z,8.96
2018-11-10T00:44:44.221Z,8.94
2018-11-10T00:45:54.101Z,9.01
2018-11-10T00:47:04.262Z,8.84
2018-11-10T00:48:13.874Z,8.83
2018-11-10T00:49:23.765Z,8.87
2018-11-10T00:50:33.384Z,8.92
2018-11-10T00:51:43.268Z,8.84
2018-11-10T00:52:52.882Z,8.87
2018-11-10T00:54:02.763Z,8.84
2018-11-10T00:55:12.379Z,8.94
2018-11-10T00:56:22.000Z,8.94
2018-11-10T00:57:31.613Z,8.89
2018-11-10T00:58:40.956Z,8.91
2018-11-10T00:59:50.570Z,8.87
2018-11-10T01:01:00.743Z,8.92
2018-11-10T01:02:10.638Z,8.94
2018-11-10T01:03:20.251Z,8.94
2018-11-10T01:04:30.147Z,8.83
2018-11-10T01:05:39.854Z,8.89
2018-11-10T01:06:49.476Z,8.96
2018-11-10T01:07:59.089Z,8.95
2018-11-10T01:09:08.701Z,8.91
2018-11-10T01:10:18.590Z,8.99
2018-11-10T01:11:27.934Z,8.87
2018-11-10T01:12:37.817Z,8.84
2018-11-10T01:13:47.986Z,8.84
2018-11-10T01:14:58.147Z,8.87
2018-11-10T01:16:08.308Z,8.86
2018-11-10T01:17:17.926Z,8.86
2018-11-10T01:18:27.810Z,8.84
2018-11-10T01:19:37.429Z,8.84
2018-11-10T01:20:47.311Z,8.86
2018-11-10T01:21:56.921Z,8.89
2018-11-10T01:23:05.989Z,8.95
2018-11-10T01:24:15.595Z,8.95
2018-11-10T01:25:25.756Z,8.96
2018-11-10T01:26:35.098Z,8.99
2018-11-10T01:27:45.212Z,9.01
2018-11-10T01:28:55.308Z,8.91
2018-11-10T01:30:04.942Z,9.08
2018-11-10T01:31:15.103Z,9.08
2018-11-10T01:32:24.709Z,9.05
2018-11-10T01:33:34.318Z,9.08
2018-11-10T01:34:44.205Z,9.05
2018-11-10T01:35:53.543Z,9.28
2018-11-10T01:37:03.437Z,9.23
2018-11-10T01:38:13.328Z,9.18
2018-11-10T01:39:22.947Z,9.18
2018-11-10T01:40:32.563Z,9.2
2018-11-10T01:41:42.450Z,9.26
2018-11-10T01:42:52.605Z,9.24
2018-11-10T01:44:02.770Z,9.18
2018-11-10T01:45:12.943Z,9.26
2018-11-10T01:46:22.571Z,9.28
2018-11-10T01:47:32.735Z,9.18
2018-11-10T01:48:42.912Z,9.18
2018-11-10T01:49:53.075Z,9.17
2018-11-10T01:51:02.966Z,9.18
2018-11-10T01:52:12.862Z,9.23
2018-11-10T01:53:22.487Z,9.23
2018-11-10T01:54:32.384Z,9.11
2018-11-10T01:55:41.990Z,9.13
2018-11-10T01:56:51.882Z,9.18
2018-11-10T01:58:01.764Z,9.21
2018-11-10T01:59:11.652Z,9.08
2018-11-10T02:00:21.272Z,9.18
2018-11-10T02:01:31.158Z,9.21
2018-11-10T02:02:40.778Z,9.1
2018-11-10T02:03:50.123Z,9.15
2018-11-10T02:05:00.068Z,9.11
2018-11-10T02:06:09.958Z,9.08
2018-11-10T02:07:19.571Z,9.08
2018-11-10T02:08:29.189Z,9.24
2018-11-10T02:09:39.349Z,9.13
2018-11-10T02:10:48.691Z,9.15
2018-11-10T02:11:58.304Z,9.08
2018-11-10T02:13:08.181Z,9.1
2018-11-10T02:14:18.069Z,9.26
2018-11-10T02:15:28.232Z,9.08
2018-11-10T02:16:38.168Z,9.1
2018-11-10T02:17:48.318Z,9.14
2018-11-10T02:18:58.510Z,9.15
2018-11-10T02:20:08.402Z,9.1
2018-11-10T02:21:18.566Z,9.1
2018-11-10T02:22:27.900Z,9.13
2018-11-10T02:23:37.242Z,9.2
2018-11-10T02:24:46.853Z,9.23
2018-11-10T02:25:56.468Z,9.21
2018-11-10T02:27:06.084Z,9.21
2018-11-10T02:28:15.432Z,9.13
2018-11-10T02:29:25.600Z,9.18
2018-11-10T02:30:35.543Z,9.18
2018-11-10T02:31:45.431Z,9.2
2018-11-10T02:32:55.607Z,9.29
2018-11-10T02:34:05.511Z,9.21
2018-11-10T02:35:15.404Z,9.29
2018-11-10T02:36:25.303Z,9.24
2018-11-10T02:37:35.190Z,9.18
2018-11-10T02:38:45.528Z,9.26
2018-11-10T02:39:56.118Z,9.15
2018-11-10T02:41:06.288Z,9.11
2018-11-10T02:42:16.499Z,9.2
2018-11-10T02:43:26.119Z,9.21
2018-11-10T02:44:36.008Z,9.11
2018-11-10T02:45:45.614Z,9.1
2018-11-10T02:46:55.772Z,9.23
2018-11-10T02:48:06.122Z,9.21
2018-11-10T02:49:16.008Z,9.21
2018-11-10T02:50:26.172Z,9.15
2018-11-10T02:51:36.337Z,9.23
2018-11-10T02:52:46.473Z,9.17
2018-11-10T02:53:56.578Z,9.18
2018-11-10T02:55:06.750Z,9.13
2018-11-10T02:56:16.369Z,9.04
2018-11-10T02:57:25.707Z,9.24
2018-11-10T02:58:35.603Z,9.18
2018-11-10T02:59:45.797Z,9.13
2018-11-10T03:00:55.679Z,9.1
2018-11-10T03:02:05.844Z,9.14
2018-11-10T03:03:15.735Z,9.01
2018-11-10T03:04:25.081Z,9.11
2018-11-10T03:05:34.718Z,9.04
2018-11-10T03:06:44.880Z,9.04
2018-11-10T03:07:54.489Z,9.01
2018-11-10T03:09:04.107Z,9.11
2018-11-10T03:10:14.272Z,8.99
2018-11-10T03:11:23.613Z,8.99
2018-11-10T03:12:33.926Z,8.99
2018-11-10T03:13:43.811Z,8.94
2018-11-10T03:14:53.967Z,8.99
2018-11-10T03:16:03.315Z,8.96
2018-11-10T03:17:12.942Z,8.98
2018-11-10T03:18:22.837Z,8.98
2018-11-10T03:19:32.993Z,8.92
2018-11-10T03:20:42.886Z,8.95
2018-11-10T03:21:52.768Z,8.99
2018-11-10T03:23:02.386Z,8.91
2018-11-10T03:24:12.546Z,8.95
2018-11-10T03:25:22.163Z,8.95
2018-11-10T03:26:31.768Z,9.08
2018-11-10T03:27:41.656Z,8.94
2018-11-10T03:28:51.543Z,8.91
2018-11-10T03:30:01.438Z,8.87
2018-11-10T03:31:11.334Z,8.99
2018-11-10T03:32:21.048Z,8.92
2018-11-10T03:33:30.857Z,9.04
2018-11-10T03:34:41.013Z,9.05
2018-11-10T03:35:51.162Z,9.11
2018-11-10T03:37:01.050Z,9.05
2018-11-10T03:38:10.393Z,9.14
2018-11-10T03:39:20.279Z,9.17
2018-11-10T03:40:29.896Z,9.21
2018-11-10T03:41:39.247Z,9.18
2018-11-10T03:42:48.862Z,9.26
2018-11-10T03:43:58.486Z,9.2
2018-11-10T03:45:08.382Z,9.2
2018-11-10T03:46:18.285Z,9.21
2018-11-10T03:47:27.623Z,9.28
2018-11-10T03:48:37.664Z,9.28
2018-11-10T03:49:47.974Z,9.23
2018-11-10T03:50:57.594Z,9.26
2018-11-10T03:52:07.491Z,9.2
2018-11-10T03:53:17.389Z,9.14
2018-11-10T03:54:27.009Z,9.24
2018-11-10T03:55:36.354Z,9.29
2018-11-10T03:56:46.517Z,9.31
2018-11-10T03:57:56.406Z,9.23
2018-11-10T03:59:06.019Z,9.21
2018-11-10T04:00:15.908Z,9.32
2018-11-10T04:01:25.794Z,9.24
2018-11-10T04:02:35.676Z,9.28
2018-11-10T04:03:45.561Z,9.26
2018-11-10T04:04:55.727Z,9.32
2018-11-10T04:06:05.905Z,9.29
2018-11-10T04:07:15.794Z,9.36
2018-11-10T04:08:25.694Z,9.31
2018-11-10T04:09:35.310Z,9.35
2018-11-10T04:10:45.192Z,9.32
2018-11-10T04:11:55.073Z,9.32
2018-11-10T04:13:05.238Z,9.36
2018-11-10T04:14:15.121Z,9.33
2018-11-10T04:15:25.023Z,9.31
2018-11-10T04:16:34.360Z,9.32
2018-11-10T04:17:44.237Z,9.38
2018-11-10T04:18:54.131Z,9.42
2018-11-10T04:20:04.060Z,9.42
2018-11-10T04:21:13.955Z,9.39
2018-11-10T04:22:23.844Z,9.43
2018-11-10T04:23:33.456Z,9.35
2018-11-10T04:24:43.352Z,9.46
2018-11-10T04:25:52.695Z,9.42
2018-11-10T04:27:02.585Z,9.5
2018-11-10T04:28:12.203Z,9.43
2018-11-10T04:29:21.821Z,9.43
2018-11-10T04:30:31.994Z,9.4
2018-11-10T04:31:41.604Z,9.4
2018-11-10T04:32:51.218Z,9.48
2018-11-10T04:34:00.830Z,9.51
2018-11-10T04:35:10.450Z,9.4
2018-11-10T04:36:20.063Z,9.54
2018-11-10T04:37:30.227Z,9.54
2018-11-10T04:38:39.855Z,9.56
2018-11-10T04:39:50.068Z,9.51
2018-11-10T04:40:59.958Z,9.56
2018-11-10T04:42:09.577Z,9.51
2018-11-10T04:43:19.204Z,9.53
2018-11-10T04:44:29.092Z,9.56
2018-11-10T04:45:38.703Z,9.6
2018-11-10T04:46:48.038Z,9.5
2018-11-10T04:47:58.188Z,9.5
2018-11-10T04:49:08.356Z,9.61
2018-11-10T04:50:17.692Z,9.66
2018-11-10T04:51:27.577Z,9.65
2018-11-10T04:52:36.926Z,9.71
2018-11-10T04:53:46.816Z,9.64
2018-11-10T04:54:56.716Z,9.68
2018-11-10T04:56:06.884Z,9.65
2018-11-10T04:57:17.307Z,9.68
2018-11-10T04:58:27.191Z,9.66
2018-11-10T04:59:36.808Z,9.69
2018-11-10T05:00:46.715Z,9.71
2018-11-10T05:01:56.608Z,9.72
2018-11-10T05:03:05.947Z,9.74
2018-11-10T05:04:16.119Z,9.78
2018-11-10T05:05:26.277Z,9.78
2018-11-10T05:06:36.166Z,9.76
2018-11-10T05:07:45.784Z,9.81
2018-11-10T05:08:55.397Z,9.78
2018-11-10T05:10:05.569Z,9.81
2018-11-10T05:11:15.460Z,9.79
2018-11-10T05:12:25.111Z,9.89
2018-11-10T05:13:34.188Z,9.81
2018-11-10T05:14:44.085Z,9.91
2018-11-10T05:15:53.700Z,9.83
2018-11-10T05:17:03.599Z,9.84
2018-11-10T05:18:13.481Z,9.79
2018-11-10T05:19:23.092Z,9.93
2018-11-10T05:20:33.255Z,9.86
2018-11-10T05:21:43.141Z,9.93
2018-11-10T05:22:53.019Z,9.86
2018-11-10T05:24:02.914Z,9.9
2018-11-10T05:25:11.711Z,9.9
2018-11-10T05:26:21.870Z,9.9
2018-11-10T05:27:31.206Z,9.9
2018-11-10T05:28:41.365Z,9.91
2018-11-10T05:29:51.263Z,9.93
2018-11-10T05:31:01.252Z,9.94
2018-11-10T05:32:11.013Z,9.93
2018-11-10T05:33:20.633Z,9.91
2018-11-10T05:34:30.260Z,9.9
2018-11-10T05:35:40.155Z,9.93
2018-11-10T05:36:50.041Z,9.97
2018-11-10T05:37:59.708Z,9.93
2018-11-10T05:39:09.050Z,10.01
2018-11-10T05:40:18.942Z,10.04
2018-11-10T05:41:28.558Z,10.01
2018-11-10T05:42:38.716Z,9.94
2018-11-10T05:43:48.059Z,9.93
2018-11-10T05:44:58.225Z,9.97
2018-11-10T05:46:07.840Z,9.97
2018-11-10T05:47:17.458Z,9.99
2018-11-10T05:48:27.627Z,10.01
2018-11-10T05:49:37.527Z,9.97
2018-11-10T05:50:47.162Z,9.94
2018-11-10T05:51:57.044Z,9.91
2018-11-10T05:53:06.930Z,10.01
2018-11-10T05:54:16.269Z,9.94
2018-11-10T05:55:26.159Z,10.01
2018-11-10T05:56:36.316Z,9.96
2018-11-10T05:57:46.197Z,10.05
2018-11-10T05:58:56.368Z,10.07
2018-11-10T06:00:05.997Z,10.01
2018-11-10T06:01:15.332Z,10.04
2018-11-10T06:02:25.500Z,10.08
2018-11-10T06:03:35.391Z,10.02
2018-11-10T06:04:45.566Z,10.04
2018-11-10T06:05:55.457Z,10.11
2018-11-10T06:07:05.354Z,10.11
2018-11-10T06:08:15.524Z,10.15
2018-11-10T06:09:25.396Z,10.11
2018-11-10T06:10:35.582Z,10.04
2018-11-10T06:11:45.745Z,10.07
2018-11-10T06:12:55.713Z,10.17
2018-11-10T06:14:05.052Z,10.05
2018-11-10T06:15:14.397Z,10.14
2018-11-10T06:16:24.282Z,10.09
2018-11-10T06:17:34.181Z,10.09
2018-11-10T06:18:44.565Z,10.05
2018-11-10T06:19:54.976Z,10.08
2018-11-10T06:21:04.867Z,10.11
2018-11-10T06:22:14.754Z,10.08
2018-11-10T06:23:24.643Z,10.15
2018-11-10T06:24:34.524Z,10.11
2018-11-10T06:25:44.408Z,10.17
2018-11-10T06:26:54.024Z,10.18
2018-11-10T06:28:03.915Z,10.14
2018-11-10T06:29:13.527Z,10.2
2018-11-10T06:30:22.874Z,10.18
2018-11-10T06:31:32.763Z,10.12
2018-11-10T06:32:42.501Z,10.12
2018-11-10T06:33:53.065Z,10.18
2018-11-10T06:35:02.948Z,10.22
2018-11-10T06:36:12.284Z,10.2
2018-11-10T06:37:22.448Z,10.22
2018-11-10T06:38:32.079Z,10.2
2018-11-10T06:39:41.696Z,10.25
2018-11-10T06:40:51.587Z,10.17
2018-11-10T06:42:01.205Z,10.27
2018-11-10T06:43:11.369Z,10.17
2018-11-10T06:44:20.703Z,10.26
2018-11-10T06:45:30.598Z,10.23
2018-11-10T06:46:40.489Z,10.23
2018-11-10T06:47:50.153Z,10.18
2018-11-10T06:48:59.760Z,10.22
2018-11-10T06:50:09.397Z,10.23
2018-11-10T06:51:19.290Z,10.23
2018-11-10T06:52:29.454Z,10.25
2018-11-10T06:53:39.338Z,10.33
2018-11-10T06:54:49.241Z,10.23
2018-11-10T06:55:59.407Z,10.32
2018-11-10T06:57:09.323Z,10.3
2018-11-10T06:58:19.494Z,10.22
2018-11-10T06:59:28.829Z,10.33
2018-11-10T07:00:38.715Z,10.3
2018-11-10T07:01:48.056Z,10.25
2018-11-10T07:02:57.945Z,10.22
2018-11-10T07:04:07.285Z,10.26
2018-11-10T07:05:17.173Z,10.33
2018-11-10T07:06:26.510Z,10.41
2018-11-10T07:07:36.402Z,10.34
2018-11-10T07:08:46.305Z,10.34
2018-11-10T07:09:55.924Z,10.34
2018-11-10T07:11:06.083Z,10.38
2018-11-10T07:12:15.692Z,10.44
2018-11-10T07:13:25.587Z,10.66
2018-11-10T07:14:35.743Z,10.61
2018-11-10T07:15:45.911Z,10.63
2018-11-10T07:16:55.526Z,10.61
2018-11-10T07:18:06.079Z,10.61
2018-11-10T07:19:15.760Z,10.59
2018-11-10T07:20:25.369Z,10.51
2018-11-10T07:21:35.268Z,10.48
2018-11-10T07:22:45.168Z,10.6
2018-11-10T07:23:54.788Z,10.64
2018-11-10T07:25:04.955Z,10.59
2018-11-10T07:26:15.497Z,10.64
2018-11-10T07:27:25.380Z,10.63
2018-11-10T07:28:35.545Z,10.56
2018-11-10T07:29:45.163Z,10.66
2018-11-10T07:30:55.046Z,10.66
2018-11-10T07:32:05.560Z,10.6
2018-11-10T07:33:15.643Z,10.6
2018-11-10T07:34:25.538Z,10.63
2018-11-10T07:35:35.432Z,10.63
2018-11-10T07:36:45.316Z,10.74
2018-11-10T07:37:55.484Z,10.73
2018-11-10T07:39:04.826Z,10.78
2018-11-10T07:40:14.450Z,10.71
2018-11-10T07:41:24.059Z,10.74
2018-11-10T07:42:33.400Z,10.81
2018-11-10T07:43:43.016Z,10.81
2018-11-10T07:44:52.912Z,10.82
2018-11-10T07:46:02.256Z,10.85
2018-11-10T07:47:12.468Z,10.79
2018-11-10T07:48:22.630Z,10.79
2018-11-10T07:49:32.769Z,10.84
2018-11-10T07:50:42.344Z,10.85
2018-11-10T07:51:51.953Z,10.81
2018-11-10T07:53:01.839Z,10.82
2018-11-10T07:54:11.731Z,10.86
2018-11-10T07:55:21.954Z,10.85
2018-11-10T07:56:31.847Z,10.88
2018-11-10T07:57:41.744Z,10.91
2018-11-10T07:58:51.903Z,10.88
2018-11-10T08:00:01.515Z,10.89
2018-11-10T08:01:11.127Z,10.92
2018-11-10T08:02:21.021Z,10.96
2018-11-10T08:03:30.515Z,10.91
2018-11-10T08:04:40.403Z,10.96
2018-11-10T08:05:49.746Z,10.94
2018-11-10T08:06:59.909Z,10.85
2018-11-10T08:08:09.528Z,10.99
2018-11-10T08:09:19.147Z,10.97
2018-11-10T08:10:29.315Z,10.99
2018-11-10T08:11:39.046Z,11.04
2018-11-10T08:12:49.085Z,11.04
2018-11-10T08:13:58.986Z,11.09
2018-11-10T08:15:08.902Z,11.09
2018-11-10T08:16:19.074Z,11.06
2018-11-10T08:17:29.242Z,11.09
2018-11-10T08:18:39.657Z,11.1
2018-11-10T08:19:49.867Z,11.09
2018-11-10T08:20:59.761Z,11.14
2018-11-10T08:22:09.655Z,11.09
2018-11-10T08:23:19.548Z,11.14
2018-11-10T08:24:29.436Z,11.09
2018-11-10T08:25:39.050Z,11.1
2018-11-10T08:26:49.213Z,11.21
2018-11-10T08:27:59.094Z,11.17
2018-11-10T08:29:08.997Z,11.14
2018-11-10T08:30:18.892Z,11.27
2018-11-10T08:31:28.507Z,11.21
2018-11-10T08:32:38.668Z,11.22
2018-11-10T08:33:48.557Z,11.21
2018-11-10T08:34:58.176Z,11.18
2018-11-10T08:36:08.063Z,11.25
2018-11-10T08:37:17.679Z,11.27
2018-11-10T08:38:27.582Z,11.28
2018-11-10T08:39:37.480Z,11.24
2018-11-10T08:40:47.091Z,11.24
2018-11-10T08:41:56.978Z,11.28
2018-11-10T08:43:06.327Z,11.27
2018-11-10T08:44:15.668Z,11.24
2018-11-10T08:45:25.817Z,11.17
2018-11-10T08:46:35.713Z,11.29
2018-11-10T08:47:45.341Z,11.32
2018-11-10T08:48:55.248Z,11.29
2018-11-10T08:50:04.635Z,11.4
2018-11-10T08:51:14.251Z,11.42
2018-11-10T08:52:23.864Z,11.35
2018-11-10T08:53:34.036Z,11.37
2018-11-10T08:54:43.935Z,11.43
2018-11-10T08:55:53.556Z,11.43
2018-11-10T08:57:03.451Z,11.43
2018-11-10T08:58:13.341Z,11.54
2018-11-10T08:59:23.689Z,11.51
2018-11-10T09:00:33.308Z,11.54
2018-11-10T09:01:43.224Z,11.6
2018-11-10T09:02:52.860Z,11.6
2018-11-10T09:04:02.778Z,11.67
2018-11-10T09:05:12.674Z,11.76
2018-11-10T09:06:22.573Z,11.7
2018-11-10T09:07:31.922Z,11.69
2018-11-10T09:08:42.149Z,11.83
2018-11-10T09:09:52.593Z,11.76
2018-11-10T09:11:02.680Z,11.76
2018-11-10T09:12:11.760Z,11.78
2018-11-10T09:13:21.934Z,11.79
2018-11-10T09:14:32.158Z,11.78
2018-11-10T09:15:42.052Z,11.88
2018-11-10T09:16:51.942Z,11.95
2018-11-10T09:18:01.999Z,11.94
2018-11-10T09:19:11.619Z,11.96
2018-11-10T09:20:21.776Z,12.02
2018-11-10T09:21:32.528Z,11.95
2018-11-10T09:22:42.665Z,12.1
2018-11-10T09:23:52.565Z,12.16
2018-11-10T09:25:02.213Z,12.12
2018-11-10T09:26:11.843Z,12.17
2018-11-10T09:27:21.731Z,12.29
2018-11-10T09:28:31.627Z,12.29
2018-11-10T09:29:41.798Z,12.34
2018-11-10T09:30:51.882Z,12.32
2018-11-10T09:32:01.945Z,12.47
2018-11-10T09:33:11.562Z,12.42
2018-11-10T09:34:21.181Z,12.49
2018-11-10T09:35:31.070Z,12.56
2018-11-10T09:36:40.720Z,12.6
2018-11-10T09:37:50.897Z,12.56
2018-11-10T09:39:00.258Z,12.62
2018-11-10T09:40:09.620Z,12.67
2018-11-10T09:41:19.795Z,12.75
2018-11-10T09:42:30.936Z,12.79
2018-11-10T09:43:40.729Z,12.77
2018-11-10T09:44:50.680Z,12.85
2018-11-10T09:46:00.865Z,12.78
2018-11-10T09:47:10.480Z,12.79
2018-11-10T09:48:19.830Z,12.83
2018-11-10T09:49:29.451Z,12.82
2018-11-10T09:50:39.143Z,12.78
2018-11-10T09:51:48.872Z,12.9
2018-11-10T09:52:58.480Z,12.96
2018-11-10T09:54:07.824Z,12.92
2018-11-10T09:55:17.437Z,13.01
2018-11-10T09:56:27.064Z,13
2018-11-10T09:57:37.235Z,12.95
2018-11-10T09:58:47.137Z,13.01
2018-11-10T09:59:56.768Z,13.07
2018-11-10T10:01:06.737Z,13.03
2018-11-10T10:02:17.858Z,13.07
2018-11-10T10:03:28.648Z,13.05
2018-11-10T10:04:38.549Z,13.03
2018-11-10T10:05:47.620Z,13.12
2018-11-10T10:06:57.239Z,13.17
2018-11-10T10:08:07.135Z,13.14
2018-11-10T10:09:16.497Z,13.19
2018-11-10T10:10:26.670Z,13.25
2018-11-10T10:11:36.297Z,13.26
2018-11-10T10:12:46.200Z,13.29
2018-11-10T10:13:56.086Z,13.3
2018-11-10T10:15:05.710Z,13.36
2018-11-10T10:16:15.725Z,13.32
2018-11-10T10:17:25.504Z,13.3
2018-11-10T10:18:35.675Z,13.39
2018-11-10T10:19:45.293Z,13.42
2018-11-10T10:20:55.193Z,13.51
2018-11-10T10:22:04.542Z,13.48
2018-11-10T10:23:14.168Z,13.39
2018-11-10T10:24:24.071Z,13.44
2018-11-10T10:25:33.686Z,13.48
2018-11-10T10:26:43.595Z,13.48
2018-11-10T10:27:53.216Z,13.44
2018-11-10T10:29:03.463Z,13.45
2018-11-10T10:30:12.493Z,13.48
2018-11-10T10:31:22.491Z,13.49
2018-11-10T10:32:32.115Z,13.44
2018-11-10T10:33:42.013Z,13.46
2018-11-10T10:34:52.530Z,13.52
2018-11-10T10:36:02.700Z,13.48
2018-11-10T10:37:12.325Z,13.55
2018-11-10T10:38:21.855Z,13.52
2018-11-10T10:39:31.350Z,13.51
2018-11-10T10:40:41.006Z,13.46
2018-11-10T10:41:51.181Z,13.48
2018-11-10T10:43:01.725Z,13.57
2018-11-10T10:44:11.464Z,13.54
2018-11-10T10:45:21.417Z,13.55
2018-11-10T10:46:31.325Z,13.6
2018-11-10T10:47:41.214Z,13.54
2018-11-10T10:48:51.933Z,13.55
2018-11-10T10:50:02.653Z,13.67
2018-11-10T10:51:12.004Z,13.66
2018-11-10T10:52:21.621Z,13.67
2018-11-10T10:53:31.783Z,13.64
2018-11-10T10:54:41.669Z,13.64
2018-11-10T10:55:51.716Z,13.67
2018-11-10T10:57:02.063Z,13.62
2018-11-10T10:58:12.214Z,13.64
2018-11-10T10:59:22.378Z,13.64
2018-11-10T11:00:32.574Z,13.66
2018-11-10T11:01:42.200Z,13.63
2018-11-10T11:02:52.786Z,13.66
2018-11-10T11:04:02.170Z,13.64
2018-11-10T11:05:11.515Z,13.63
2018-11-10T11:06:20.878Z,13.64
2018-11-10T11:07:30.772Z,13.71
2018-11-10T11:08:40.388Z,13.71
2018-11-10T11:09:50.625Z,13.7
2018-11-10T11:11:00.245Z,13.71
2018-11-10T11:12:10.143Z,13.75
2018-11-10T11:13:20.032Z,13.81
2018-11-10T11:14:29.648Z,13.71
2018-11-10T11:15:39.736Z,13.79
2018-11-10T11:16:49.726Z,13.82
2018-11-10T11:17:59.345Z,13.79
2018-11-10T11:19:09.516Z,13.82
2018-11-10T11:20:19.690Z,13.79
2018-11-10T11:21:29.322Z,13.89
2018-11-10T11:22:39.215Z,13.88
2018-11-10T11:23:48.834Z,13.88
2018-11-10T11:24:58.180Z,13.84
2018-11-10T11:26:08.223Z,13.84
2018-11-10T11:27:17.592Z,13.82
2018-11-10T11:28:27.213Z,13.84
2018-11-10T11:29:37.489Z,13.82
2018-11-10T11:30:47.674Z,13.82
2018-11-10T11:31:57.296Z,13.87
2018-11-10T11:33:07.190Z,13.91
2018-11-10T11:34:16.265Z,13.92
2018-11-10T11:35:26.868Z,13.88
2018-11-10T11:36:36.252Z,13.79
2018-11-10T11:37:46.141Z,13.85
2018-11-10T11:38:55.760Z,13.81
2018-11-10T11:40:05.959Z,13.85
2018-11-10T11:41:16.114Z,13.79
2018-11-10T11:42:26.584Z,13.84
2018-11-10T11:43:36.476Z,13.84
2018-11-10T11:44:46.643Z,13.81
2018-11-10T11:45:55.718Z,13.79
2018-11-10T11:47:05.902Z,13.79
2018-11-10T11:48:15.800Z,13.77
2018-11-10T11:49:25.166Z,13.78
2018-11-10T11:50:34.785Z,13.78
2018-11-10T11:51:44.682Z,13.84
2018-11-10T11:52:54.582Z,13.77
2018-11-10T11:54:04.476Z,13.79
2018-11-10T11:55:14.093Z,13.81
2018-11-10T11:56:23.715Z,13.77
2018-11-10T11:57:34.050Z,13.73
2018-11-10T11:58:44.017Z,13.78
2018-11-10T11:59:53.647Z,13.79
2018-11-10T12:01:03.268Z,13.77
2018-11-10T12:02:13.760Z,13.77
2018-11-10T12:03:23.841Z,13.73
2018-11-10T12:04:33.644Z,13.78
2018-11-10T12:05:43.309Z,13.73
2018-11-10T12:06:53.204Z,13.75
2018-11-10T12:08:03.104Z,13.71
2018-11-10T12:09:13.001Z,13.71
2018-11-10T12:10:23.167Z,13.69
2018-11-10T12:11:33.053Z,13.66
2018-11-10T12:12:42.949Z,13.7
2018-11-10T12:13:52.570Z,13.66
2018-11-10T12:15:02.253Z,13.62
2018-11-10T12:16:11.826Z,13.64
2018-11-10T12:17:21.726Z,13.64
2018-11-10T12:18:31.077Z,13.63
2018-11-10T12:19:40.977Z,13.51
2018-11-10T12:20:51.067Z,13.62
2018-11-10T12:22:01.483Z,13.63
2018-11-10T12:23:11.528Z,13.57
2018-11-10T12:24:20.874Z,13.6
2018-11-10T12:25:31.048Z,13.52
2018-11-10T12:26:41.054Z,13.54
2018-11-10T12:27:51.142Z,13.46
2018-11-10T12:29:01.312Z,13.49
2018-11-10T12:30:11.008Z,13.49
2018-11-10T12:31:20.675Z,13.48
2018-11-10T12:32:30.639Z,13.57
2018-11-10T12:33:40.259Z,13.59
2018-11-10T12:34:50.153Z,13.44
2018-11-10T12:35:59.508Z,13.51
2018-11-10T12:37:09.406Z,13.41
2018-11-10T12:38:19.020Z,13.51
2018-11-10T12:39:28.645Z,13.57
2018-11-10T12:40:38.812Z,13.48
2018-11-10T12:41:48.787Z,13.48
2018-11-10T12:42:58.125Z,13.49
2018-11-10T12:44:08.018Z,13.54
2018-11-10T12:45:17.975Z,13.57
2018-11-10T12:46:28.274Z,13.52
2018-11-10T12:47:38.787Z,13.52
2018-11-10T12:48:48.914Z,13.63
2018-11-10T12:49:58.604Z,13.63
2018-11-10T12:51:08.224Z,13.6
2018-11-10T12:52:18.312Z,13.67
2018-11-10T12:53:28.344Z,13.66
2018-11-10T12:54:37.962Z,13.64
2018-11-10T12:55:47.353Z,13.69
2018-11-10T12:56:56.701Z,13.69
2018-11-10T12:58:06.344Z,13.79
2018-11-10T12:59:16.045Z,13.7
2018-11-10T13:00:25.950Z,13.63
2018-11-10T13:01:35.300Z,13.66
2018-11-10T13:02:45.200Z,13.64
2018-11-10T13:03:55.373Z,13.49
2018-11-10T13:05:05.554Z,13.49
2018-11-10T13:06:15.183Z,13.57
2018-11-10T13:07:24.803Z,13.54
2018-11-10T13:08:34.152Z,13.55
2018-11-10T13:09:44.041Z,13.57
2018-11-10T13:10:53.866Z,13.57
2018-11-10T13:12:04.642Z,13.62
2018-11-10T13:13:14.038Z,13.66
2018-11-10T13:14:24.384Z,13.6
2018-11-10T13:15:34.437Z,13.64
2018-11-10T13:16:44.546Z,13.66
2018-11-10T13:17:54.582Z,13.64
2018-11-10T13:19:04.254Z,13.66
2018-11-10T13:20:13.881Z,13.52
2018-11-10T13:21:23.507Z,13.62
2018-11-10T13:22:33.127Z,13.63
2018-11-10T13:23:43.027Z,13.63
2018-11-10T13:24:52.917Z,13.62
2018-11-10T13:26:03.085Z,13.52
2018-11-10T13:27:12.703Z,13.57
2018-11-10T13:28:22.602Z,13.59
2018-11-10T13:29:32.497Z,13.54
2018-11-10T13:30:42.216Z,13.57
2018-11-10T13:31:52.195Z,13.52
2018-11-10T13:33:02.498Z,13.55
2018-11-10T13:34:11.861Z,13.52
2018-11-10T13:35:21.481Z,13.48
2018-11-10T13:36:31.380Z,13.51
2018-11-10T13:37:41.564Z,13.52
2018-11-10T13:38:51.599Z,13.48
2018-11-10T13:40:01.515Z,13.51
2018-11-10T13:41:10.871Z,13.48
2018-11-10T13:42:20.635Z,13.46
2018-11-10T13:43:30.737Z,13.46
2018-11-10T13:44:41.278Z,13.41
2018-11-10T13:45:51.185Z,13.46
2018-11-10T13:47:00.802Z,13.49
2018-11-10T13:48:10.689Z,13.48
2018-11-10T13:49:20.328Z,13.44
2018-11-10T13:50:30.106Z,13.45
2018-11-10T13:51:40.829Z,13.48
2018-11-10T13:52:52.588Z,13.45
2018-11-10T13:54:02.483Z,13.49
2018-11-10T13:55:11.825Z,13.36
2018-11-10T13:56:21.445Z,13.33
2018-11-10T13:57:30.803Z,13.29
2018-11-10T13:58:40.698Z,13.32
2018-11-10T13:59:50.598Z,13.28
2018-11-10T14:01:00.499Z,13.23
2018-11-10T14:02:10.675Z,13.38
2018-11-10T14:03:19.747Z,13.39
2018-11-10T14:04:29.368Z,13.36
2018-11-10T14:05:39.241Z,13.33
2018-11-10T14:06:48.997Z,13.32
2018-11-10T14:07:58.625Z,13.3
2018-11-10T14:09:08.248Z,13.32
2018-11-10T14:10:18.297Z,13.29
2018-11-10T14:11:28.255Z,13.32
2018-11-10T14:12:38.688Z,13.39
2018-11-10T14:13:48.893Z,13.32
2018-11-10T14:14:58.779Z,13.32
2018-11-10T14:16:08.939Z,13.32
2018-11-10T14:17:18.828Z,13.28
2018-11-10T14:18:28.454Z,13.36
2018-11-10T14:19:38.074Z,13.41
2018-11-10T14:20:48.091Z,13.29
2018-11-10T14:21:58.123Z,13.22
2018-11-10T14:23:07.748Z,13.36
2018-11-10T14:24:17.375Z,13.36
2018-11-10T14:25:27.005Z,13.29
2018-11-10T14:26:36.792Z,13.26
2018-11-10T14:27:46.717Z,13.17
2018-11-10T14:28:56.962Z,13.2
2018-11-10T14:30:06.314Z,13.14
2018-11-10T14:31:16.229Z,13.2
2018-11-10T14:32:25.853Z,13.1
2018-11-10T14:33:35.480Z,13.1
2018-11-10T14:34:45.388Z,13.12
2018-11-10T14:35:54.730Z,13.12
2018-11-10T14:37:04.625Z,13.15
2018-11-10T14:38:14.797Z,13.14
2018-11-10T14:39:24.418Z,13.15
2018-11-10T14:40:34.312Z,13.05
2018-11-10T14:41:44.211Z,13.05
2018-11-10T14:42:53.836Z,13
2018-11-10T14:44:03.674Z,13.01
2018-11-10T14:45:13.727Z,13.05
2018-11-10T14:46:23.908Z,12.96
2018-11-10T14:47:33.251Z,12.95
2018-11-10T14:48:43.155Z,13.03
2018-11-10T14:49:52.775Z,12.97
2018-11-10T14:51:02.938Z,13.03
2018-11-10T14:52:13.099Z,12.95
2018-11-10T14:53:22.823Z,12.9
2018-11-10T14:54:32.718Z,12.9
2018-11-10T14:55:42.334Z,12.97
2018-11-10T14:56:52.232Z,12.93
2018-11-10T14:58:01.846Z,12.85
2018-11-10T14:59:10.919Z,12.92
2018-11-10T15:00:21.119Z,12.82
2018-11-10T15:01:30.742Z,12.78
2018-11-10T15:02:40.914Z,12.78
2018-11-10T15:03:50.531Z,12.77
2018-11-10T15:05:00.694Z,12.82
2018-11-10T15:06:10.319Z,12.79
2018-11-10T15:07:20.487Z,12.79
2018-11-10T15:08:30.100Z,12.68
2018-11-10T15:09:39.991Z,12.83
2018-11-10T15:10:49.880Z,12.68
2018-11-10T15:11:59.737Z,12.77
2018-11-10T15:13:09.787Z,12.71